sensor_id;sensor_type;location;lat;lon;timestamp;temperature;humidity
27072;DHT22;14613;46.308;25.288;2023-01-09T00:00:25;3.10;85.60
27072;DHT22;14613;46.308;25.288;2023-01-09T00:02:51;3.10;85.60
27072;DHT22;14613;46.308;25.288;2023-01-09T00:05:18;3.10;85.70
27072;DHT22;14613;46.308;25.288;2023-01-09T00:07:43;3.10;85.70
27072;DHT22;14613;46.308;25.288;2023-01-09T00:10:10;3.10;85.70
27072;DHT22;14613;46.308;25.288;2023-01-09T00:12:36;3.00;85.60
27072;DHT22;14613;46.308;25.288;2023-01-09T00:15:03;3.00;86.50
27072;DHT22;14613;46.308;25.288;2023-01-09T00:17:29;3.00;85.70
27072;DHT22;14613;46.308;25.288;2023-01-09T00:19:55;3.00;85.70
27072;DHT22;14613;46.308;25.288;2023-01-09T00:22:22;3.00;85.60
27072;DHT22;14613;46.308;25.288;2023-01-09T00:24:48;3.00;85.40
27072;DHT22;14613;46.308;25.288;2023-01-09T00:27:14;3.00;85.40
27072;DHT22;14613;46.308;25.288;2023-01-09T00:29:40;3.00;85.40
27072;DHT22;14613;46.308;25.288;2023-01-09T00:32:07;2.90;85.50
27072;DHT22;14613;46.308;25.288;2023-01-09T00:34:36;2.90;85.70
27072;DHT22;14613;46.308;25.288;2023-01-09T00:37:03;2.80;85.70
27072;DHT22;14613;46.308;25.288;2023-01-09T00:39:29;2.80;85.70
27072;DHT22;14613;46.308;25.288;2023-01-09T00:41:55;2.80;85.90
27072;DHT22;14613;46.308;25.288;2023-01-09T00:44:37;2.70;86.00
27072;DHT22;14613;46.308;25.288;2023-01-09T00:47:20;2.70;86.20
27072;DHT22;14613;46.308;25.288;2023-01-09T00:49:48;2.60;86.40
27072;DHT22;14613;46.308;25.288;2023-01-09T00:52:15;2.60;86.60
27072;DHT22;14613;46.308;25.288;2023-01-09T00:54:41;2.60;86.60
27072;DHT22;14613;46.308;25.288;2023-01-09T00:57:10;2.60;86.50
27072;DHT22;14613;46.308;25.288;2023-01-09T00:59:38;2.60;86.20
27072;DHT22;14613;46.308;25.288;2023-01-09T01:02:04;2.70;86.20
27072;DHT22;14613;46.308;25.288;2023-01-09T01:04:29;2.70;86.10
27072;DHT22;14613;46.308;25.288;2023-01-09T01:07:14;2.70;86.10
27072;DHT22;14613;46.308;25.288;2023-01-09T01:09:58;2.70;86.10
27072;DHT22;14613;46.308;25.288;2023-01-09T01:12:23;2.70;86.20
27072;DHT22;14613;46.308;25.288;2023-01-09T01:14:51;2.60;86.00
27072;DHT22;14613;46.308;25.288;2023-01-09T01:17:16;2.60;86.00
27072;DHT22;14613;46.308;25.288;2023-01-09T01:19:42;2.60;85.90
27072;DHT22;14613;46.308;25.288;2023-01-09T01:22:08;2.70;86.00
27072;DHT22;14613;46.308;25.288;2023-01-09T01:24:34;2.70;86.00
27072;DHT22;14613;46.308;25.288;2023-01-09T01:27:00;2.70;86.00
27072;DHT22;14613;46.308;25.288;2023-01-09T01:29:26;2.70;86.80
27072;DHT22;14613;46.308;25.288;2023-01-09T01:31:52;2.70;86.00
27072;DHT22;14613;46.308;25.288;2023-01-09T01:34:18;2.60;85.90
27072;DHT22;14613;46.308;25.288;2023-01-09T01:36:44;2.60;85.90
27072;DHT22;14613;46.308;25.288;2023-01-09T01:39:10;2.60;85.90
27072;DHT22;14613;46.308;25.288;2023-01-09T01:41:36;2.70;85.90
27072;DHT22;14613;46.308;25.288;2023-01-09T01:47:09;2.60;85.90
27072;DHT22;14613;46.308;25.288;2023-01-09T01:49:35;2.60;85.80
27072;DHT22;14613;46.308;25.288;2023-01-09T01:52:01;2.60;85.90
27072;DHT22;14613;46.308;25.288;2023-01-09T01:54:30;2.50;85.90
27072;DHT22;14613;46.308;25.288;2023-01-09T01:56:59;2.50;85.90
27072;DHT22;14613;46.308;25.288;2023-01-09T01:59:33;2.50;86.10
27072;DHT22;14613;46.308;25.288;2023-01-09T02:02:01;2.50;86.00
27072;DHT22;14613;46.308;25.288;2023-01-09T02:04:28;2.40;86.10
27072;DHT22;14613;46.308;25.288;2023-01-09T02:06:55;2.40;86.20
27072;DHT22;14613;46.308;25.288;2023-01-09T02:09:22;2.40;86.10
27072;DHT22;14613;46.308;25.288;2023-01-09T02:11:51;2.40;86.20
27072;DHT22;14613;46.308;25.288;2023-01-09T02:14:18;2.40;86.20
27072;DHT22;14613;46.308;25.288;2023-01-09T02:17:08;2.40;86.20
27072;DHT22;14613;46.308;25.288;2023-01-09T02:33:48;2.30;86.50
27072;DHT22;14613;46.308;25.288;2023-01-09T02:44:26;2.30;86.30
27072;DHT22;14613;46.308;25.288;2023-01-09T02:50:00;2.30;86.50
27072;DHT22;14613;46.308;25.288;2023-01-09T02:52:42;2.30;86.50
27072;DHT22;14613;46.308;25.288;2023-01-09T03:03:30;2.20;86.30
27072;DHT22;14613;46.308;25.288;2023-01-09T03:09:02;2.20;86.40
27072;DHT22;14613;46.308;25.288;2023-01-09T03:11:34;2.20;86.30
27072;DHT22;14613;46.308;25.288;2023-01-09T03:14:07;2.20;86.20
27072;DHT22;14613;46.308;25.288;2023-01-09T03:16:35;2.20;86.20
27072;DHT22;14613;46.308;25.288;2023-01-09T03:19:06;2.20;86.30
27072;DHT22;14613;46.308;25.288;2023-01-09T03:21:32;2.10;86.20
27072;DHT22;14613;46.308;25.288;2023-01-09T03:24:00;2.10;86.30
27072;DHT22;14613;46.308;25.288;2023-01-09T03:26:27;2.10;86.40
27072;DHT22;14613;46.308;25.288;2023-01-09T03:28:56;2.00;86.60
27072;DHT22;14613;46.308;25.288;2023-01-09T03:31:23;2.00;86.70
27072;DHT22;14613;46.308;25.288;2023-01-09T03:33:49;2.00;86.80
27072;DHT22;14613;46.308;25.288;2023-01-09T03:36:17;2.00;86.90
27072;DHT22;14613;46.308;25.288;2023-01-09T03:38:43;2.00;86.90
27072;DHT22;14613;46.308;25.288;2023-01-09T03:41:08;2.00;86.80
27072;DHT22;14613;46.308;25.288;2023-01-09T03:43:35;2.00;86.80
27072;DHT22;14613;46.308;25.288;2023-01-09T03:46:01;2.00;86.80
27072;DHT22;14613;46.308;25.288;2023-01-09T03:48:27;2.00;86.80
27072;DHT22;14613;46.308;25.288;2023-01-09T03:50:54;2.00;87.60
27072;DHT22;14613;46.308;25.288;2023-01-09T03:53:21;2.00;86.80
27072;DHT22;14613;46.308;25.288;2023-01-09T03:55:49;2.00;86.80
27072;DHT22;14613;46.308;25.288;2023-01-09T03:58:16;2.00;86.80
27072;DHT22;14613;46.308;25.288;2023-01-09T04:00:43;2.00;86.90
27072;DHT22;14613;46.308;25.288;2023-01-09T04:03:18;2.00;86.90
27072;DHT22;14613;46.308;25.288;2023-01-09T04:05:45;1.90;86.90
27072;DHT22;14613;46.308;25.288;2023-01-09T04:08:12;1.90;87.10
27072;DHT22;14613;46.308;25.288;2023-01-09T04:10:38;1.90;87.10
27072;DHT22;14613;46.308;25.288;2023-01-09T04:13:04;1.90;87.00
27072;DHT22;14613;46.308;25.288;2023-01-09T04:15:30;1.90;87.00
27072;DHT22;14613;46.308;25.288;2023-01-09T04:17:55;1.90;87.10
27072;DHT22;14613;46.308;25.288;2023-01-09T04:20:23;1.90;87.20
27072;DHT22;14613;46.308;25.288;2023-01-09T04:22:48;1.90;87.20
27072;DHT22;14613;46.308;25.288;2023-01-09T04:25:14;1.90;87.30
27072;DHT22;14613;46.308;25.288;2023-01-09T04:27:40;1.90;87.40
27072;DHT22;14613;46.308;25.288;2023-01-09T04:30:06;1.90;87.40
27072;DHT22;14613;46.308;25.288;2023-01-09T04:32:32;1.90;87.50
27072;DHT22;14613;46.308;25.288;2023-01-09T04:34:58;1.90;87.40
27072;DHT22;14613;46.308;25.288;2023-01-09T04:37:24;1.90;87.40
27072;DHT22;14613;46.308;25.288;2023-01-09T04:39:50;1.90;87.20
27072;DHT22;14613;46.308;25.288;2023-01-09T04:42:16;1.90;87.20
27072;DHT22;14613;46.308;25.288;2023-01-09T04:44:42;1.90;87.20
27072;DHT22;14613;46.308;25.288;2023-01-09T04:47:08;1.90;87.20
27072;DHT22;14613;46.308;25.288;2023-01-09T04:49:34;1.90;87.20
27072;DHT22;14613;46.308;25.288;2023-01-09T04:52:00;1.90;87.20
27072;DHT22;14613;46.308;25.288;2023-01-09T04:54:25;1.90;87.20
27072;DHT22;14613;46.308;25.288;2023-01-09T04:56:52;1.90;87.30
27072;DHT22;14613;46.308;25.288;2023-01-09T04:59:18;1.90;87.40
27072;DHT22;14613;46.308;25.288;2023-01-09T05:01:43;1.90;87.40
27072;DHT22;14613;46.308;25.288;2023-01-09T05:04:09;1.90;87.40
27072;DHT22;14613;46.308;25.288;2023-01-09T05:06:35;1.90;87.40
27072;DHT22;14613;46.308;25.288;2023-01-09T05:09:02;2.00;87.40
27072;DHT22;14613;46.308;25.288;2023-01-09T05:11:28;2.00;87.40
27072;DHT22;14613;46.308;25.288;2023-01-09T05:13:54;2.00;87.30
27072;DHT22;14613;46.308;25.288;2023-01-09T05:16:20;2.00;87.30
27072;DHT22;14613;46.308;25.288;2023-01-09T05:18:46;1.90;87.20
27072;DHT22;14613;46.308;25.288;2023-01-09T05:21:12;1.90;87.40
27072;DHT22;14613;46.308;25.288;2023-01-09T05:23:38;1.90;87.40
27072;DHT22;14613;46.308;25.288;2023-01-09T05:26:04;1.90;87.40
27072;DHT22;14613;46.308;25.288;2023-01-09T05:28:31;1.80;87.40
27072;DHT22;14613;46.308;25.288;2023-01-09T05:30:57;1.80;87.50
27072;DHT22;14613;46.308;25.288;2023-01-09T05:33:22;1.90;87.70
27072;DHT22;14613;46.308;25.288;2023-01-09T05:35:48;1.90;87.70
27072;DHT22;14613;46.308;25.288;2023-01-09T05:38:14;1.90;87.70
27072;DHT22;14613;46.308;25.288;2023-01-09T05:40:40;1.90;87.70
27072;DHT22;14613;46.308;25.288;2023-01-09T05:43:06;1.80;87.70
27072;DHT22;14613;46.308;25.288;2023-01-09T05:45:32;1.80;87.80
27072;DHT22;14613;46.308;25.288;2023-01-09T05:47:58;1.80;87.80
27072;DHT22;14613;46.308;25.288;2023-01-09T05:50:24;1.80;87.90
27072;DHT22;14613;46.308;25.288;2023-01-09T05:52:49;1.80;88.00
27072;DHT22;14613;46.308;25.288;2023-01-09T05:55:15;1.90;88.00
27072;DHT22;14613;46.308;25.288;2023-01-09T05:57:41;1.90;88.00
27072;DHT22;14613;46.308;25.288;2023-01-09T06:00:07;1.90;88.00
27072;DHT22;14613;46.308;25.288;2023-01-09T06:02:33;2.00;88.00
27072;DHT22;14613;46.308;25.288;2023-01-09T06:04:59;2.00;87.90
27072;DHT22;14613;46.308;25.288;2023-01-09T06:07:25;2.00;87.90
27072;DHT22;14613;46.308;25.288;2023-01-09T06:09:51;2.00;87.90
27072;DHT22;14613;46.308;25.288;2023-01-09T06:12:16;2.00;87.90
27072;DHT22;14613;46.308;25.288;2023-01-09T06:14:42;2.00;87.80
27072;DHT22;14613;46.308;25.288;2023-01-09T06:17:08;2.00;87.90
27072;DHT22;14613;46.308;25.288;2023-01-09T06:19:35;2.00;88.00
27072;DHT22;14613;46.308;25.288;2023-01-09T06:22:01;1.90;88.00
27072;DHT22;14613;46.308;25.288;2023-01-09T06:24:27;1.90;88.10
27072;DHT22;14613;46.308;25.288;2023-01-09T06:26:52;2.00;88.20
27072;DHT22;14613;46.308;25.288;2023-01-09T06:29:18;2.00;88.30
27072;DHT22;14613;46.308;25.288;2023-01-09T06:31:44;2.00;88.20
27072;DHT22;14613;46.308;25.288;2023-01-09T06:34:10;2.10;88.30
27072;DHT22;14613;46.308;25.288;2023-01-09T06:36:37;2.10;88.40
27072;DHT22;14613;46.308;25.288;2023-01-09T06:39:03;2.20;88.40
27072;DHT22;14613;46.308;25.288;2023-01-09T06:41:28;2.20;88.40
27072;DHT22;14613;46.308;25.288;2023-01-09T06:43:54;2.30;88.60
27072;DHT22;14613;46.308;25.288;2023-01-09T06:46:20;2.40;88.60
27072;DHT22;14613;46.308;25.288;2023-01-09T06:48:46;2.40;88.50
27072;DHT22;14613;46.308;25.288;2023-01-09T06:51:11;2.50;88.40
27072;DHT22;14613;46.308;25.288;2023-01-09T06:53:37;2.50;88.40
27072;DHT22;14613;46.308;25.288;2023-01-09T06:56:03;2.60;88.60
27072;DHT22;14613;46.308;25.288;2023-01-09T06:58:29;2.60;88.70
27072;DHT22;14613;46.308;25.288;2023-01-09T07:00:57;2.70;88.80
27072;DHT22;14613;46.308;25.288;2023-01-09T07:03:23;2.70;88.70
27072;DHT22;14613;46.308;25.288;2023-01-09T07:05:49;2.80;88.60
27072;DHT22;14613;46.308;25.288;2023-01-09T07:08:15;2.80;88.40
27072;DHT22;14613;46.308;25.288;2023-01-09T07:10:42;2.80;88.60
27072;DHT22;14613;46.308;25.288;2023-01-09T07:13:08;2.80;88.80
27072;DHT22;14613;46.308;25.288;2023-01-09T07:15:34;2.90;88.90
27072;DHT22;14613;46.308;25.288;2023-01-09T07:18:00;3.00;89.20
27072;DHT22;14613;46.308;25.288;2023-01-09T07:20:26;3.10;89.30
27072;DHT22;14613;46.308;25.288;2023-01-09T07:22:51;3.20;89.40
27072;DHT22;14613;46.308;25.288;2023-01-09T07:25:18;3.40;89.30
27072;DHT22;14613;46.308;25.288;2023-01-09T07:27:44;3.50;89.00
27072;DHT22;14613;46.308;25.288;2023-01-09T07:30:10;3.60;88.90
27072;DHT22;14613;46.308;25.288;2023-01-09T07:32:36;3.60;88.80
27072;DHT22;14613;46.308;25.288;2023-01-09T07:35:08;3.80;89.00
27072;DHT22;14613;46.308;25.288;2023-01-09T07:37:34;3.90;89.00
27072;DHT22;14613;46.308;25.288;2023-01-09T07:40:00;4.00;88.80
27072;DHT22;14613;46.308;25.288;2023-01-09T07:42:26;4.20;88.70
27072;DHT22;14613;46.308;25.288;2023-01-09T07:44:52;4.20;88.50
27072;DHT22;14613;46.308;25.288;2023-01-09T07:47:18;4.30;88.40
27072;DHT22;14613;46.308;25.288;2023-01-09T07:49:47;4.40;88.30
27072;DHT22;14613;46.308;25.288;2023-01-09T07:52:15;4.50;88.20
27072;DHT22;14613;46.308;25.288;2023-01-09T07:54:41;4.50;88.20
27072;DHT22;14613;46.308;25.288;2023-01-09T07:57:07;4.60;88.10
27072;DHT22;14613;46.308;25.288;2023-01-09T07:59:33;4.70;88.00
27072;DHT22;14613;46.308;25.288;2023-01-09T08:01:58;4.70;88.00
27072;DHT22;14613;46.308;25.288;2023-01-09T08:04:26;4.80;88.00
27072;DHT22;14613;46.308;25.288;2023-01-09T08:06:52;4.90;87.90
27072;DHT22;14613;46.308;25.288;2023-01-09T08:09:18;5.00;88.00
27072;DHT22;14613;46.308;25.288;2023-01-09T08:11:43;5.10;88.10
27072;DHT22;14613;46.308;25.288;2023-01-09T08:14:09;5.20;88.30
27072;DHT22;14613;46.308;25.288;2023-01-09T08:16:35;5.30;88.30
27072;DHT22;14613;46.308;25.288;2023-01-09T08:19:01;5.50;88.50
27072;DHT22;14613;46.308;25.288;2023-01-09T08:21:26;5.70;88.30
27072;DHT22;14613;46.308;25.288;2023-01-09T08:23:52;5.80;87.90
27072;DHT22;14613;46.308;25.288;2023-01-09T08:26:18;5.90;87.50
27072;DHT22;14613;46.308;25.288;2023-01-09T08:28:44;6.00;87.40
27072;DHT22;14613;46.308;25.288;2023-01-09T08:31:10;6.10;87.70
27072;DHT22;14613;46.308;25.288;2023-01-09T08:33:36;6.30;87.70
27072;DHT22;14613;46.308;25.288;2023-01-09T08:36:02;6.40;87.70
27072;DHT22;14613;46.308;25.288;2023-01-09T08:38:27;6.60;87.70
27072;DHT22;14613;46.308;25.288;2023-01-09T08:40:53;6.70;87.60
27072;DHT22;14613;46.308;25.288;2023-01-09T08:43:19;6.80;87.60
27072;DHT22;14613;46.308;25.288;2023-01-09T08:46:04;7.00;87.50
27072;DHT22;14613;46.308;25.288;2023-01-09T08:48:49;7.10;87.30
27072;DHT22;14613;46.308;25.288;2023-01-09T08:51:14;7.20;87.30
27072;DHT22;14613;46.308;25.288;2023-01-09T08:53:40;7.30;87.30
27072;DHT22;14613;46.308;25.288;2023-01-09T08:56:06;7.40;87.30
27072;DHT22;14613;46.308;25.288;2023-01-09T08:58:32;7.50;87.30
27072;DHT22;14613;46.308;25.288;2023-01-09T09:00:58;7.60;87.00
27072;DHT22;14613;46.308;25.288;2023-01-09T09:03:24;7.70;86.70
27072;DHT22;14613;46.308;25.288;2023-01-09T09:05:50;7.80;87.40
27072;DHT22;14613;46.308;25.288;2023-01-09T09:08:15;7.90;86.40
27072;DHT22;14613;46.308;25.288;2023-01-09T09:10:41;8.00;86.20
27072;DHT22;14613;46.308;25.288;2023-01-09T09:13:07;8.10;86.00
27072;DHT22;14613;46.308;25.288;2023-01-09T09:15:33;8.20;85.90
27072;DHT22;14613;46.308;25.288;2023-01-09T09:18:04;8.30;85.80
27072;DHT22;14613;46.308;25.288;2023-01-09T09:20:35;8.30;85.70
27072;DHT22;14613;46.308;25.288;2023-01-09T09:23:02;8.50;85.80
27072;DHT22;14613;46.308;25.288;2023-01-09T09:25:28;8.50;85.60
27072;DHT22;14613;46.308;25.288;2023-01-09T09:27:54;8.60;85.70
27072;DHT22;14613;46.308;25.288;2023-01-09T09:30:23;8.70;86.00
27072;DHT22;14613;46.308;25.288;2023-01-09T09:32:49;8.80;85.60
27072;DHT22;14613;46.308;25.288;2023-01-09T09:35:15;8.80;85.30
27072;DHT22;14613;46.308;25.288;2023-01-09T09:37:47;8.90;85.20
27072;DHT22;14613;46.308;25.288;2023-01-09T09:40:22;9.00;85.30
27072;DHT22;14613;46.308;25.288;2023-01-09T09:46:32;9.20;85.00
27072;DHT22;14613;46.308;25.288;2023-01-09T09:49:23;9.30;85.00
27072;DHT22;14613;46.308;25.288;2023-01-09T09:52:05;9.40;84.80
27072;DHT22;14613;46.308;25.288;2023-01-09T09:54:43;9.50;84.60
27072;DHT22;14613;46.308;25.288;2023-01-09T09:57:15;9.60;84.50
27072;DHT22;14613;46.308;25.288;2023-01-09T09:59:42;9.80;84.30
27072;DHT22;14613;46.308;25.288;2023-01-09T10:02:21;10.00;84.10
27072;DHT22;14613;46.308;25.288;2023-01-09T10:04:54;10.10;84.00
27072;DHT22;14613;46.308;25.288;2023-01-09T10:07:47;10.30;83.70
27072;DHT22;14613;46.308;25.288;2023-01-09T10:10:43;10.50;83.20
27072;DHT22;14613;46.308;25.288;2023-01-09T10:13:11;10.50;83.60
27072;DHT22;14613;46.308;25.288;2023-01-09T10:16:00;10.60;82.80
27072;DHT22;14613;46.308;25.288;2023-01-09T10:21:20;10.80;82.40
27072;DHT22;14613;46.308;25.288;2023-01-09T10:23:57;10.90;82.10
27072;DHT22;14613;46.308;25.288;2023-01-09T10:26:50;11.00;81.80
27072;DHT22;14613;46.308;25.288;2023-01-09T10:34:55;11.20;81.20
27072;DHT22;14613;46.308;25.288;2023-01-09T10:37:22;11.40;81.00
27072;DHT22;14613;46.308;25.288;2023-01-09T10:39:59;11.50;80.30
27072;DHT22;14613;46.308;25.288;2023-01-09T10:43:08;11.60;80.00
27072;DHT22;14613;46.308;25.288;2023-01-09T10:45:47;11.60;79.90
27072;DHT22;14613;46.308;25.288;2023-01-09T10:48:23;11.60;79.60
27072;DHT22;14613;46.308;25.288;2023-01-09T10:50:51;11.60;79.40
27072;DHT22;14613;46.308;25.288;2023-01-09T10:53:25;11.80;79.40
27072;DHT22;14613;46.308;25.288;2023-01-09T10:56:01;11.90;79.00
27072;DHT22;14613;46.308;25.288;2023-01-09T10:58:30;12.00;78.10
27072;DHT22;14613;46.308;25.288;2023-01-09T11:00:56;12.10;77.90
27072;DHT22;14613;46.308;25.288;2023-01-09T11:03:26;12.10;77.70
27072;DHT22;14613;46.308;25.288;2023-01-09T11:05:57;12.20;77.50
27072;DHT22;14613;46.308;25.288;2023-01-09T11:08:35;12.20;76.90
27072;DHT22;14613;46.308;25.288;2023-01-09T11:11:04;12.30;76.50
27072;DHT22;14613;46.308;25.288;2023-01-09T11:13:33;12.30;76.20
27072;DHT22;14613;46.308;25.288;2023-01-09T11:16:19;12.50;75.80
27072;DHT22;14613;46.308;25.288;2023-01-09T11:18:55;12.60;75.30
27072;DHT22;14613;46.308;25.288;2023-01-09T11:21:34;12.70;74.80
27072;DHT22;14613;46.308;25.288;2023-01-09T11:26:49;12.70;74.60
27072;DHT22;14613;46.308;25.288;2023-01-09T11:29:18;12.70;74.60
27072;DHT22;14613;46.308;25.288;2023-01-09T11:31:53;12.60;74.70
27072;DHT22;14613;46.308;25.288;2023-01-09T11:34:23;12.60;74.60
27072;DHT22;14613;46.308;25.288;2023-01-09T11:36:52;12.50;74.50
27072;DHT22;14613;46.308;25.288;2023-01-09T11:39:23;12.60;74.30
27072;DHT22;14613;46.308;25.288;2023-01-09T11:42:03;12.50;74.40
27072;DHT22;14613;46.308;25.288;2023-01-09T11:44:30;12.50;74.60
27072;DHT22;14613;46.308;25.288;2023-01-09T11:46:57;12.50;74.50
27072;DHT22;14613;46.308;25.288;2023-01-09T11:49:26;12.60;74.20
27072;DHT22;14613;46.308;25.288;2023-01-09T11:52:15;12.50;74.10
27072;DHT22;14613;46.308;25.288;2023-01-09T11:54:59;12.50;73.90
27072;DHT22;14613;46.308;25.288;2023-01-09T11:57:28;12.40;73.80
27072;DHT22;14613;46.308;25.288;2023-01-09T11:59:58;12.40;73.90
27072;DHT22;14613;46.308;25.288;2023-01-09T12:15:31;12.50;71.40
27072;DHT22;14613;46.308;25.288;2023-01-09T12:20:52;12.30;71.70
27072;DHT22;14613;46.308;25.288;2023-01-09T12:34:35;12.20;71.90
27072;DHT22;14613;46.308;25.288;2023-01-09T12:51:04;12.00;71.60
27072;DHT22;14613;46.308;25.288;2023-01-09T12:53:39;11.90;71.80
27072;DHT22;14613;46.308;25.288;2023-01-09T12:56:15;11.80;72.10
27072;DHT22;14613;46.308;25.288;2023-01-09T12:58:50;11.70;72.30
27072;DHT22;14613;46.308;25.288;2023-01-09T13:01:24;11.70;72.40
27072;DHT22;14613;46.308;25.288;2023-01-09T13:04:17;11.80;72.30
27072;DHT22;14613;46.308;25.288;2023-01-09T13:06:49;11.80;72.10
27072;DHT22;14613;46.308;25.288;2023-01-09T13:09:35;11.80;72.90
27072;DHT22;14613;46.308;25.288;2023-01-09T13:12:07;11.80;72.10
27072;DHT22;14613;46.308;25.288;2023-01-09T13:14:53;11.80;72.00
27072;DHT22;14613;46.308;25.288;2023-01-09T13:17:53;11.80;71.80
27072;DHT22;14613;46.308;25.288;2023-01-09T13:20:21;11.80;71.70
27072;DHT22;14613;46.308;25.288;2023-01-09T13:22:48;11.80;71.60
27072;DHT22;14613;46.308;25.288;2023-01-09T13:28:00;11.80;71.60
27072;DHT22;14613;46.308;25.288;2023-01-09T13:30:35;11.80;71.70
27072;DHT22;14613;46.308;25.288;2023-01-09T13:33:20;11.80;71.70
27072;DHT22;14613;46.308;25.288;2023-01-09T13:35:50;11.70;71.70
27072;DHT22;14613;46.308;25.288;2023-01-09T13:38:19;11.70;71.60
27072;DHT22;14613;46.308;25.288;2023-01-09T13:40:46;11.80;71.80
27072;DHT22;14613;46.308;25.288;2023-01-09T13:43:12;11.70;71.80
27072;DHT22;14613;46.308;25.288;2023-01-09T13:45:41;11.70;71.80
27072;DHT22;14613;46.308;25.288;2023-01-09T13:50:37;11.60;71.80
27072;DHT22;14613;46.308;25.288;2023-01-09T14:06:38;11.40;72.10
27072;DHT22;14613;46.308;25.288;2023-01-09T14:09:17;11.40;72.00
27072;DHT22;14613;46.308;25.288;2023-01-09T14:11:45;11.40;72.10
27072;DHT22;14613;46.308;25.288;2023-01-09T14:14:26;11.30;72.10
27072;DHT22;14613;46.308;25.288;2023-01-09T14:16:54;11.30;72.30
27072;DHT22;14613;46.308;25.288;2023-01-09T14:19:57;11.20;72.30
27072;DHT22;14613;46.308;25.288;2023-01-09T14:22:31;11.20;72.40
27072;DHT22;14613;46.308;25.288;2023-01-09T14:25:14;11.10;72.50
27072;DHT22;14613;46.308;25.288;2023-01-09T14:41:19;10.70;72.70
27072;DHT22;14613;46.308;25.288;2023-01-09T14:44:21;10.70;72.70
27072;DHT22;14613;46.308;25.288;2023-01-09T14:46:49;10.60;72.60
27072;DHT22;14613;46.308;25.288;2023-01-09T14:49:36;10.60;72.80
27072;DHT22;14613;46.308;25.288;2023-01-09T14:52:19;10.50;72.90
27072;DHT22;14613;46.308;25.288;2023-01-09T14:54:47;10.40;73.10
27072;DHT22;14613;46.308;25.288;2023-01-09T14:57:28;10.40;73.20
27072;DHT22;14613;46.308;25.288;2023-01-09T14:59:55;10.30;73.20
27072;DHT22;14613;46.308;25.288;2023-01-09T15:02:22;10.20;73.30
27072;DHT22;14613;46.308;25.288;2023-01-09T15:04:48;10.10;73.40
27072;DHT22;14613;46.308;25.288;2023-01-09T15:07:23;10.00;73.50
27072;DHT22;14613;46.308;25.288;2023-01-09T15:09:59;9.90;73.60
27072;DHT22;14613;46.308;25.288;2023-01-09T15:12:27;9.80;73.70
27072;DHT22;14613;46.308;25.288;2023-01-09T15:14:56;9.80;73.90
27072;DHT22;14613;46.308;25.288;2023-01-09T15:17:32;9.70;73.90
27072;DHT22;14613;46.308;25.288;2023-01-09T15:20:01;9.60;74.00
27072;DHT22;14613;46.308;25.288;2023-01-09T15:22:36;9.50;74.20
27072;DHT22;14613;46.308;25.288;2023-01-09T15:25:27;9.50;74.30
27072;DHT22;14613;46.308;25.288;2023-01-09T15:27:55;9.40;74.40
27072;DHT22;14613;46.308;25.288;2023-01-09T15:30:33;9.30;74.50
27072;DHT22;14613;46.308;25.288;2023-01-09T15:33:04;9.30;74.60
27072;DHT22;14613;46.308;25.288;2023-01-09T15:35:42;9.20;74.60
27072;DHT22;14613;46.308;25.288;2023-01-09T15:38:15;9.10;74.80
27072;DHT22;14613;46.308;25.288;2023-01-09T15:40:42;9.10;74.90
27072;DHT22;14613;46.308;25.288;2023-01-09T15:43:16;9.00;75.00
27072;DHT22;14613;46.308;25.288;2023-01-09T15:45:44;9.00;75.10
27072;DHT22;14613;46.308;25.288;2023-01-09T15:51:16;8.90;75.20
27072;DHT22;14613;46.308;25.288;2023-01-09T15:53:45;8.90;75.30
27072;DHT22;14613;46.308;25.288;2023-01-09T15:58:39;8.70;75.40
27072;DHT22;14613;46.308;25.288;2023-01-09T16:01:30;8.70;75.40
27072;DHT22;14613;46.308;25.288;2023-01-09T16:04:09;8.60;75.40
27072;DHT22;14613;46.308;25.288;2023-01-09T16:06:44;8.50;75.50
27072;DHT22;14613;46.308;25.288;2023-01-09T16:09:28;8.50;75.60
27072;DHT22;14613;46.308;25.288;2023-01-09T16:12:00;8.40;75.70
27072;DHT22;14613;46.308;25.288;2023-01-09T16:14:32;8.40;75.80
27072;DHT22;14613;46.308;25.288;2023-01-09T16:17:01;8.30;75.80
27072;DHT22;14613;46.308;25.288;2023-01-09T16:22:22;8.20;76.10
27072;DHT22;14613;46.308;25.288;2023-01-09T16:24:49;8.10;76.40
27072;DHT22;14613;46.308;25.288;2023-01-09T16:30:07;8.10;76.70
27072;DHT22;14613;46.308;25.288;2023-01-09T16:32:47;8.10;76.90
27072;DHT22;14613;46.308;25.288;2023-01-09T16:35:18;8.10;77.10
27072;DHT22;14613;46.308;25.288;2023-01-09T16:37:44;8.10;77.20
27072;DHT22;14613;46.308;25.288;2023-01-09T16:40:22;8.10;77.30
27072;DHT22;14613;46.308;25.288;2023-01-09T16:42:59;8.20;77.30
27072;DHT22;14613;46.308;25.288;2023-01-09T16:45:30;8.20;77.30
27072;DHT22;14613;46.308;25.288;2023-01-09T16:47:56;8.20;77.20
27072;DHT22;14613;46.308;25.288;2023-01-09T16:50:23;8.20;77.10
27072;DHT22;14613;46.308;25.288;2023-01-09T16:52:50;8.30;77.10
27072;DHT22;14613;46.308;25.288;2023-01-09T16:55:16;8.30;77.10
27072;DHT22;14613;46.308;25.288;2023-01-09T16:57:42;8.30;77.10
27072;DHT22;14613;46.308;25.288;2023-01-09T17:00:18;8.30;77.10
27072;DHT22;14613;46.308;25.288;2023-01-09T17:02:45;8.30;77.10
27072;DHT22;14613;46.308;25.288;2023-01-09T17:05:11;8.30;77.00
27072;DHT22;14613;46.308;25.288;2023-01-09T17:07:37;8.20;76.80
27072;DHT22;14613;46.308;25.288;2023-01-09T17:10:04;8.20;76.90
27072;DHT22;14613;46.308;25.288;2023-01-09T17:12:30;8.20;77.00
27072;DHT22;14613;46.308;25.288;2023-01-09T17:14:56;8.20;77.00
27072;DHT22;14613;46.308;25.288;2023-01-09T17:17:22;8.20;77.00
27072;DHT22;14613;46.308;25.288;2023-01-09T17:19:47;8.30;77.00
27072;DHT22;14613;46.308;25.288;2023-01-09T17:22:14;8.30;76.80
27072;DHT22;14613;46.308;25.288;2023-01-09T17:24:40;8.30;76.80
27072;DHT22;14613;46.308;25.288;2023-01-09T17:27:34;8.30;76.80
27072;DHT22;14613;46.308;25.288;2023-01-09T17:30:20;8.40;76.80
27072;DHT22;14613;46.308;25.288;2023-01-09T17:32:47;8.40;76.80
27072;DHT22;14613;46.308;25.288;2023-01-09T17:35:14;8.40;77.00
27072;DHT22;14613;46.308;25.288;2023-01-09T17:37:40;8.40;76.80
27072;DHT22;14613;46.308;25.288;2023-01-09T17:40:18;8.50;76.80
27072;DHT22;14613;46.308;25.288;2023-01-09T17:42:44;8.40;76.90
27072;DHT22;14613;46.308;25.288;2023-01-09T17:45:10;8.40;77.00
27072;DHT22;14613;46.308;25.288;2023-01-09T17:47:36;8.40;77.10
27072;DHT22;14613;46.308;25.288;2023-01-09T17:50:03;8.40;77.10
27072;DHT22;14613;46.308;25.288;2023-01-09T17:52:29;8.30;77.00
27072;DHT22;14613;46.308;25.288;2023-01-09T17:54:56;8.30;76.90
27072;DHT22;14613;46.308;25.288;2023-01-09T17:57:22;8.30;76.80
27072;DHT22;14613;46.308;25.288;2023-01-09T17:59:48;8.30;76.70
27072;DHT22;14613;46.308;25.288;2023-01-09T18:02:17;8.30;76.70